Lexington, KY

2:22 AM EDT on July 02, 2015 (GMT -0400)
Open Gates | | Change Station
CLOSE
Current Station
Personal Weather Station
Location: Lexington, KY
Elevation: 1014 ft
Nearby Weather Stations

Elev 1014 ft 38.01 °N, 84.54 °W | Updated 0 second ago

Overcast
Overcast
69.1 °F
Feels Like 69.1 °F
N
0.0
Wind Variable Wind from SSW
Gusts 1.0 mph

Today
High -- | Low -- °F
--% Chance of Precip.
Yesterday
High -- | Low -- °F
Precip. -- in
6:19 AM 9:04 PM
Full, 100% visible
Pressure 29.94 in
Visibility 5.0 miles
Clouds Few 1300 ft
Mostly Cloudy 2700 ft
Mostly Cloudy 9000 ft
Dew Point 68 °F
Humidity 96%
Rainfall 0.00 in
Snow Depth Not available.
UV 0.0 out of 12
Pollen 3.50 out of 12
Air Quality Not available.
Flu Activity Not available.
SPECI KLEX 020619Z 22006KT 5SM BR FEW013 BKN027 BKN090 21/19 A2994 RMK AO2 T02060194 $

More Conditions Fewer Conditions

Pressure 29.94 in
Visibility 5.0 miles
Clouds Few 1300 ft
Mostly Cloudy 2700 ft
Mostly Cloudy 9000 ft
Dew Point 68 °F
Humidity 96%
Rainfall 0.00 in
Snow Depth Not available.
UV 0.0 out of 12
Pollen 3.50 out of 12
Air Quality Not available.
Flu Activity Not available.
SPECI KLEX 020619Z 22006KT 5SM BR FEW013 BKN027 BKN090 21/19 A2994 RMK AO2 T02060194 $

More Conditions Fewer Conditions

10-Day Weather Forecast

×

Almanac

Astronomy

Jul. 02, 2015 Rise Set
Actual Time
Civil Twilight
Nautical Twilight
Astronomical Twilight
Moon
Length of Visible Light
Length of Day
Tomorrow will be .
, % of the Moon is Illuminated

Today's Extremes

State Highs State Lows

Community

WunderPhotos

Upload Photos

1,834,422 photos uploaded!

WunderBlogs® & News

Nearby

Air Quality

  Air Quality AQ Index Pollutant
Not available.

Snow Depth

Station Depth Elevation

Earthquake Activity

City Distance Mag. Time & Date
Minimum magnitude displayed is 2.5.

Coastal Water Temperatures

Place Temperature

Stations

Nearby Weather Stations

Station Location Temp. Windchill Dew Point Humidity Wind Precip. Elev Updated Type